Latest Weather Observations for Armidale Airport

IDN60801

Issued at 9:02 am EST Sunday 26 April 2015 (issued every 30 minutes, with the page automatically refreshed every 10 minutes)

About weather observations | Map of weather stations | Latest weather observations for NSW | Other Formats
Station Details ID: 056238 Name: ARMIDALE AIRPORT AWS Lat: -30.53 Lon: 151.62 Height: 1079.0 m
Data from the previous 72 hours. | See also: Recent months for locations in New South Wales
Date/Time
EST
Temp
°C
App
Temp
°C
Dew
Point
Rel
Hum
%
Delta-T
°C
Wind Press
QNH
hPa
Press
MSL
hPa
Rain
since 9 am
mm
Dir
 
Spd
km/h
Gust
km/h
Spd
kts
Gust
kts
26/09:00am 5.5 -2.6 5.2 98 0.1 WNW 37 46 20 25 1012.4 1009.0 0.4
26/08:45am 5.2 -1.6 4.9 98 0.1 WNW 30 43 16 23 1012.5 1009.1 0.4
26/08:44am 5.1 -1.8 4.8 98 0.1 WNW 30 41 16 22 1012.5 1009.1 0.4
26/08:30am 5.4 -1.8 5.1 98 0.1 WNW 32 44 17 24 1012.4 1009.0 0.4
26/08:26am 5.4 -2.0 5.1 98 0.1 WNW 33 44 18 24 1012.4 1009.0 0.4
26/08:00am 5.1 -2.7 4.8 98 0.1 W 35 48 19 26 1011.8 1008.5 0.4
26/07:30am 4.7 -1.5 4.4 98 0.1 WNW 26 37 14 20 1011.3 1007.9 0.4
26/07:06am 4.7 -1.9 4.4 98 0.1 WNW 28 37 15 20 1011.0 1007.7 0.4
26/07:03am 4.6 -2.0 4.3 98 0.1 WNW 28 37 15 20 1011.0 1007.7 0.4
26/07:01am 4.5 -2.1 4.2 98 0.1 WNW 28 37 15 20 1011.0 1007.7 0.4
26/07:00am 4.5 -2.1 4.2 98 0.1 WNW 28 37 15 20 1011.0 1007.7 0.4
26/06:51am 4.5 -3.2 3.6 94 0.4 WNW 33 44 18 24 1010.9 1007.6 0.4
26/06:42am 4.9 -2.8 3.6 91 0.6 WNW 33 44 18 24 1010.7 1007.3 0.2
26/06:30am 5.6 -2.0 2.8 82 1.2 WNW 32 43 17 23 1010.7 1007.3 0.2
26/06:00am 5.6 -2.0 2.8 82 1.2 WNW 32 41 17 22 1010.1 1006.8 0.2
26/05:30am 5.9 -0.1 3.2 83 1.2 WNW 24 33 13 18 1009.9 1006.5 0.2
26/05:00am 6.2 1.3 4.0 86 1.0 WNW 19 24 10 13 1010.1 1006.8 0.2
26/04:30am 6.5 0.9 3.7 82 1.3 WNW 22 30 12 16 1010.1 1006.8 0.2
26/04:00am 6.7 1.8 4.2 84 1.2 W 19 24 10 13 1010.4 1007.0 0.2
26/03:30am 7.2 0.9 4.0 80 1.5 W 26 33 14 18 1010.1 1006.8 0.2
26/03:00am 7.7 1.0 3.6 75 1.9 WSW 28 35 15 19 1009.9 1006.5 0.2
26/02:30am 8.8 1.5 2.6 65 2.8 W 30 43 16 23 1010.1 1006.8 0.2
26/02:00am 9.1 3.9 2.7 64 2.9 WNW 19 30 10 16 1010.3 1006.9 0.2
26/01:30am 8.7 4.0 3.3 69 2.5 WNW 17 22 9 12 1010.4 1007.0 0.2
26/01:00am 8.4 3.3 3.1 69 2.4 WNW 19 24 10 13 1010.7 1007.3 0.2
26/12:43am 9.3 2.6 3.5 67 2.7 W 28 50 15 27 1010.6 1007.2 0.2
26/12:30am 9.6 4.6 3.4 65 2.9 WNW 19 24 10 13 1010.5 1007.1 0.2
26/12:00am 10.7 4.7 3.3 60 3.5 WNW 24 35 13 19 1010.7 1007.3 0.2
 
Date/Time
EST
Temp
°C
App
Temp
°C
Dew
Point
Rel
Hum
%
Delta-T
°C
Wind Press
QNH
hPa
Press
MSL
hPa
Rain
since 9 am
mm
Dir
 
Spd
km/h
Gust
km/h
Spd
kts
Gust
kts
25/11:30pm 10.8 6.3 4.3 64 3.1 WNW 17 20 9 11 1010.9 1007.6 0.2
25/11:00pm 11.0 6.4 3.8 61 3.4 NW 17 24 9 13 1011.3 1007.9 0.2
25/10:30pm 11.1 6.2 3.9 61 3.4 NW 19 22 10 12 1011.6 1008.2 0.2
25/10:00pm 11.5 6.6 4.0 60 3.6 WNW 19 24 10 13 1011.7 1008.3 0.2
25/09:30pm 12.4 6.9 3.9 56 4.1 NW 22 28 12 15 1011.9 1008.6 0.2
25/09:00pm 11.6 7.2 4.6 62 3.4 NW 17 20 9 11 1011.9 1008.6 0.2
25/08:30pm 11.1 6.9 3.9 61 3.4 NW 15 17 8 9 1011.9 1008.6 0.2
25/08:00pm 11.0 7.6 3.8 61 3.4 NW 11 15 6 8 1011.8 1008.5 0.2
25/07:30pm 12.8 8.5 3.5 53 4.4 NNW 15 19 8 10 1011.5 1008.1 0.2
25/07:00pm 13.2 9.4 3.8 53 4.5 NNW 13 17 7 9 1011.4 1008.0 0.2
25/06:30pm 12.4 8.6 3.9 56 4.1 NNW 13 15 7 8 1011.1 1007.8 0.2
25/06:00pm 12.7 8.4 3.4 53 4.4 NNW 15 19 8 10 1010.9 1007.6 0.2
25/05:30pm 13.1 8.8 3.2 51 4.7 NW 15 20 8 11 1010.7 1007.3 0.2
25/05:00pm 15.0 9.7 2.9 44 5.8 NW 20 30 11 16 1010.6 1007.2 0.2
25/04:30pm 15.4 9.4 3.2 44 5.9 NW 24 33 13 18 1010.6 1007.2 0.2
25/04:00pm 17.1 10.3 3.1 39 6.8 WNW 28 37 15 20 1010.5 1007.1 0.2
25/03:30pm 17.5 9.8 2.3 36 7.3 NW 32 39 17 21 1010.5 1007.1 0.2
25/03:00pm 17.7 9.7 1.7 34 7.6 WNW 33 48 18 26 1010.5 1007.1 0.2
25/02:54pm 17.8 10.3 1.3 33 7.8 NW 30 48 16 26 1010.5 1007.1 0.2
25/02:30pm 18.3 10.6 2.2 34 7.8 WNW 32 44 17 24 1010.5 1007.1 0.2
25/02:00pm 18.3 11.3 2.2 34 7.8 NW 28 39 15 21 1010.6 1007.2 0.2
25/01:30pm 18.3 10.6 2.2 34 7.8 WNW 32 41 17 22 1010.7 1007.3 0.2
25/01:00pm 18.3 12.1 4.5 40 7.0 NW 26 39 14 21 1010.9 1007.6 0.2
25/12:30pm 18.4 11.7 3.8 38 7.3 WNW 28 39 15 21 1011.4 1008.0 0.2
25/12:25pm 17.5 9.7 2.7 37 7.2 WNW 33 50 18 27 1011.5 1008.1 0.2
25/12:00pm 17.5 11.1 3.4 39 6.9 WNW 26 33 14 18 1011.8 1008.5 0.2
25/11:39am 17.5 10.7 3.0 38 7.1 WNW 28 46 15 25 1012.0 1008.7 0.2
25/11:30am 17.4 10.6 3.3 39 6.9 WNW 28 35 15 19 1012.1 1008.8 0.2
25/11:00am 17.2 11.8 4.5 43 6.4 WNW 22 30 12 16 1012.5 1009.1 0.2
25/10:30am 16.8 12.0 5.4 47 5.8 W 20 30 11 16 1012.9 1009.6 0.0
25/10:00am 16.5 12.0 6.3 51 5.3 WNW 19 30 10 16 1013.1 1009.8 0.0
25/09:30am 15.7 11.5 5.9 52 5.0 WNW 17 26 9 14 1013.3 1009.9 0.0
25/09:00am 15.0 11.2 6.0 55 4.6 WNW 15 20 8 11 1013.3 1009.9 0.0
25/08:30am 13.6 10.9 7.2 65 3.3 NW 11 15 6 8 1013.4 1010.0 0.0
25/08:00am 12.8 10.5 7.3 69 2.8 WNW 9 13 5 7 1013.1 1009.8 0.0
25/07:30am 11.3 9.1 6.4 72 2.5 NW 7 11 4 6 1013.0 1009.7 0.0
25/07:00am 9.1 6.5 6.0 81 1.5 NW 9 11 5 6 1012.6 1009.3 0.0
25/06:30am 7.9 5.2 5.4 84 1.2 NW 9 11 5 6 1012.4 1009.0 0.0
25/06:00am 7.8 5.1 5.4 85 1.1 WNW 9 11 5 6 1012.1 1008.8 0.0
25/05:30am 7.6 4.5 5.4 86 1.0 WNW 11 13 6 7 1012.0 1008.7 0.0
25/05:00am 7.7 4.3 5.7 87 1.0 NW 13 15 7 8 1011.7 1008.3 0.0
25/04:30am 7.1 3.3 5.9 92 0.6 NW 15 15 8 8 1011.7 1008.3 0.0
25/04:00am 6.9 3.3 4.9 87 0.9 WNW 13 15 7 8 1011.8 1008.5 0.0
25/03:30am 8.0 4.2 6.0 87 1.0 W 15 17 8 9 1011.7 1008.3 0.0
25/03:00am 7.9 4.1 5.9 87 1.0 W 15 17 8 9 1011.7 1008.3 0.0
25/02:30am 7.8 4.1 6.1 89 0.8 W 15 17 8 9 1011.8 1008.5 0.0
25/02:00am 7.7 4.0 6.3 91 0.7 W 15 17 8 9 1012.1 1008.8 0.0
25/01:30am 7.7 4.4 6.2 90 0.7 WNW 13 15 7 8 1012.3 1008.9 0.0
25/01:00am 8.0 4.3 6.3 89 0.8 W 15 17 8 9 1012.6 1009.3 0.0
25/12:30am 7.9 4.6 6.2 89 0.8 WNW 13 15 7 8 1012.8 1009.5 0.0
25/12:00am 8.7 5.6 7.3 91 0.7 WNW 13 15 7 8 1012.7 1009.4 0.0
 
Date/Time
EST
Temp
°C
App
Temp
°C
Dew
Point
Rel
Hum
%
Delta-T
°C
Wind Press
QNH
hPa
Press
MSL
hPa
Rain
since 9 am
mm
Dir
 
Spd
km/h
Gust
km/h
Spd
kts
Gust
kts
24/11:30pm 8.9 6.7 7.7 92 0.6 NW 9 13 5 7 1012.7 1009.4 0.0
24/11:00pm 8.5 6.2 7.4 93 0.6 WNW 9 11 5 6 1012.5 1009.1 0.0
24/10:30pm 9.2 7.0 8.0 92 0.6 WNW 9 9 5 5 1012.6 1009.3 0.0
24/10:00pm 9.7 7.6 8.3 91 0.7 WNW 9 11 5 6 1012.8 1009.5 0.0
24/09:30pm 9.9 7.1 8.5 91 0.7 NW 13 15 7 8 1012.9 1009.6 0.0
24/09:00pm 10.4 8.0 8.5 88 1.0 NW 11 13 6 7 1012.8 1009.5 0.0
24/08:30pm 10.9 9.3 8.8 87 1.1 NW 7 13 4 7 1012.8 1009.5 0.0
24/08:00pm 11.4 8.7 9.1 86 1.2 NNW 13 15 7 8 1012.6 1009.3 0.0
24/07:30pm 11.5 9.2 9.1 85 1.3 NNW 11 13 6 7 1012.6 1009.3 0.0
24/07:00pm 12.0 10.6 9.0 82 1.6 NW 6 9 3 5 1012.4 1009.0 0.0
24/06:30pm 12.8 10.6 9.3 79 1.9 NW 11 13 6 7 1012.1 1008.8 0.0
24/06:00pm 14.1 12.1 10.1 77 2.2 NW 11 15 6 8 1011.8 1008.5 0.0
24/05:30pm 15.2 13.4 10.8 75 2.5 WNW 11 15 6 8 1011.6 1008.2 0.0
24/05:00pm 16.2 13.1 10.3 68 3.3 NW 17 28 9 15 1011.1 1007.8 0.0
24/04:30pm 16.0 12.5 10.3 69 3.2 WNW 19 26 10 14 1010.9 1007.6 0.0
24/04:00pm 16.3 13.2 10.2 67 3.4 WNW 17 20 9 11 1010.9 1007.6 0.0
24/03:30pm 16.5 13.0 10.1 66 3.6 W 19 22 10 12 1011.0 1007.7 0.0
24/03:00pm 16.9 13.0 9.6 62 4.0 WNW 20 30 11 16 1011.1 1007.8 0.0
24/02:30pm 18.3 14.1 9.9 58 4.7 WNW 22 35 12 19 1011.1 1007.8 0.0
24/02:00pm 17.2 13.2 10.6 65 3.7 WNW 22 33 12 18 1011.4 1008.0 0.0
24/01:30pm 16.4 12.5 10.9 70 3.1 W 22 28 12 15 1011.3 1007.9 0.0
24/01:00pm 16.7 12.7 10.3 66 3.6 WNW 22 32 12 17 1011.5 1008.1 0.0
24/12:30pm 16.9 12.5 10.3 65 3.7 WNW 24 33 13 18 1011.9 1008.6 0.0
24/12:00pm 16.2 11.8 10.3 68 3.3 W 24 30 13 16 1012.5 1009.1 0.0
24/11:30am 16.9 13.7 11.8 72 2.9 W 20 28 11 15 1012.7 1009.4 0.0
24/11:00am 16.2 13.3 12.2 77 2.3 WNW 19 26 10 14 1013.0 1009.7 0.0
24/10:43am 15.1 11.7 11.1 77 2.3 WNW 20 26 11 14 1013.1 1009.8 0.0
24/10:30am 15.1 12.1 11.9 81 1.8 WNW 19 24 10 13 1013.4 1010.0 0.0
24/10:00am 14.4 11.8 12.1 86 1.3 WNW 17 24 9 13 1013.4 1010.0 0.0
24/09:30am 14.1 11.2 12.8 92 0.8 NW 20 26 11 14 1013.5 1010.2 0.0
24/09:29am 14.2 11.4 13.1 93 0.6 NW 20 26 11 14 1013.6 1010.3 0.0
24/09:00am 14.3 13.3 13.5 95 0.5 WNW 11 15 6 8 1013.4 1010.0 0.0
24/08:30am 13.8 13.2 13.5 98 0.2 NW 9 13 5 7 1013.1 1009.8 0.0
24/08:00am 13.2 12.1 13.0 99 0.1 NW 11 15 6 8 1013.3 1009.9 0.0
24/07:30am 10.7 9.8 10.7 100 0.0 NW 6 7 3 4 1012.8 1009.5 0.0
24/07:00am 9.9 8.8 9.9 100 0.0 NNE 6 9 3 5 1012.5 1009.1 0.0
24/06:30am 9.5 8.1 9.5 100 0.0 W 7 9 4 5 1012.7 1009.4 0.0
24/06:07am 10.1 9.8 10.1 100 0.0 ENE 2 7 1 4 1012.3 1008.9 0.0
24/06:00am 9.7 8.5 9.6 99 0.1 NE 6 9 3 5 1012.1 1008.8 0.0
24/05:30am 9.2 7.7 9.1 99 0.1 NNW 7 9 4 5 1012.3 1008.9 0.0
24/05:23am 9.8 9.4 9.7 99 0.1 N 2 9 1 5 1012.4 1009.0 0.0
24/05:00am 9.8 9.8 9.7 99 0.1 CALM 0 0 0 0 1012.3 1008.9 0.0
24/04:30am 9.9 8.2 9.8 99 0.1 WNW 9 11 5 6 1012.4 1009.0 0.0
24/04:00am 10.3 9.0 10.1 99 0.1 WNW 7 7 4 4 1012.1 1008.8 0.0
24/03:30am 10.3 8.3 10.1 99 0.1 WNW 11 15 6 8 1012.4 1009.0 0.0
24/03:00am 9.9 8.2 9.8 99 0.1 NW 9 15 5 8 1012.3 1008.9 0.0
24/02:30am 9.9 7.8 9.8 99 0.1 NW 11 11 6 6 1012.5 1009.1 0.0
24/02:00am 9.5 7.7 9.4 99 0.1 WNW 9 11 5 6 1012.6 1009.3 0.0
24/01:30am 9.0 7.4 8.7 98 0.2 NW 7 11 4 6 1012.6 1009.3 0.0
24/01:00am 9.2 7.6 8.9 98 0.2 WNW 7 9 4 5 1013.1 1009.8 0.0
24/12:30am 8.9 6.9 8.6 98 0.2 NW 9 11 5 6 1013.5 1010.2 0.0
24/12:00am 8.9 6.5 8.6 98 0.2 NW 11 13 6 7 1013.5 1010.2 0.0
 
Date/Time
EST
Temp
°C
App
Temp
°C
Dew
Point
Rel
Hum
%
Delta-T
°C
Wind Press
QNH
hPa
Press
MSL
hPa
Rain
since 9 am
mm
Dir
 
Spd
km/h
Gust
km/h
Spd
kts
Gust
kts
23/11:30pm 9.1 7.1 8.8 98 0.2 WNW 9 11 5 6 1013.7 1010.4 0.0
23/11:00pm 9.2 7.3 8.9 98 0.2 WNW 9 11 5 6 1014.0 1010.7 0.0
23/10:30pm 9.4 7.5 9.1 98 0.2 WNW 9 11 5 6 1013.7 1010.4 0.0
23/10:00pm 9.2 7.8 8.9 98 0.2 NW 6 6 3 3 1013.9 1010.6 0.0
23/09:30pm 9.0 7.4 8.7 98 0.2 WNW 7 9 4 5 1014.1 1010.8 0.0
23/09:00pm 9.2 7.6 8.9 98 0.2 WNW 7 9 4 5 1014.3 1011.0 0.0
23/08:30pm 10.3 9.2 10.0 98 0.2 W 6 7 3 4 1014.3 1011.0 0.0
23/08:00pm 9.6 8.1 9.3 98 0.2 WNW 7 9 4 5 1014.1 1010.8 0.0
23/07:30pm 9.6 8.0 8.7 94 0.5 W 7 9 4 5 1014.1 1010.8 0.0
23/07:00pm 10.4 8.1 9.0 91 0.7 WSW 11 11 6 6 1013.8 1010.5 0.0
23/06:30pm 11.0 9.1 8.9 87 1.1 W 9 11 5 6 1013.7 1010.4 0.0
23/06:00pm 11.8 9.2 9.5 86 1.2 W 13 15 7 8 1013.6 1010.3 0.0
23/05:30pm 12.8 10.7 9.6 81 1.7 W 11 15 6 8 1013.3 1009.9 0.0
23/05:00pm 14.9 13.4 10.7 76 2.3 WNW 9 13 5 7 1012.8 1009.5 0.0
23/04:30pm 14.8 12.4 10.2 74 2.5 WNW 13 17 7 9 1012.7 1009.4 0.0
23/04:00pm 15.3 13.0 10.3 72 2.8 WNW 13 17 7 9 1012.8 1009.5 0.0
23/03:30pm 16.1 14.1 10.2 68 3.3 W 11 15 6 8 1012.7 1009.4 0.0
23/03:00pm 16.1 13.3 10.0 67 3.4 WNW 15 20 8 11 1012.5 1009.1 0.0
23/02:30pm 15.8 13.2 9.2 65 3.6 W 13 20 7 11 1012.6 1009.3 0.0
23/02:00pm 15.0 12.1 9.8 71 2.9 NW 15 20 8 11 1012.9 1009.6 0.0
23/01:30pm 15.1 12.5 9.2 68 3.2 WNW 13 19 7 10 1013.0 1009.7 0.0
23/01:00pm 14.4 12.0 10.0 75 2.4 NW 13 17 7 9 1013.5 1010.2 0.0
23/12:30pm 13.4 11.4 10.2 81 1.8 W 11 19 6 10 1013.9 1010.6 0.0
23/12:00pm 13.4 11.1 10.4 82 1.7 W 13 17 7 9 1014.5 1011.2 0.0
23/11:30am 13.2 10.5 10.2 82 1.6 W 15 19 8 10 1014.8 1011.5 0.0
23/11:00am 13.4 11.4 10.0 80 1.9 WSW 11 20 6 11 1014.9 1011.6 0.0
23/10:30am 12.8 10.4 10.2 84 1.4 WSW 13 19 7 10 1015.0 1011.8 0.0
23/10:00am 12.6 10.6 10.1 85 1.4 W 11 15 6 8 1015.1 1011.9 0.0
23/09:30am 11.9 9.2 10.3 90 0.9 W 15 20 8 11 1015.3 1012.0 0.0

Other Formats:

Comma delimited format used in spreadsheet applications
http://www.bom.gov.au/fwo/IDN60801/IDN60801.95773.axf

JavaScript Object Notation format (JSON) in row-major order
http://www.bom.gov.au/fwo/IDN60801/IDN60801.95773.json